Current | Forecast
Updated: 8:00 PM MSK on October 23, 2017
Observed at Begishevo, Russia
Temperature 28°F
Windchill 23°F
Humidity 74%
Dew Point 21°F
Wind North at 4 mph
Pressure 30.06 in (Steady)
Conditions Clear
Visibility -
UV N/A
Clouds
Yesterday's Maximum 34°F
Yesterday's Minimum 27°F approx.
Yesterday's Heating Degree Days 35 approx.
Sunrise6:17 AM MSK
Sunset4:12 PM MSK
Moon Rise9:45 AM MSK
Moon Set6:22 PM MSK
Moon PhaseMoon Phase
Waxing Crescent
Raw METARMETAR UWKE 231700Z 35002MPS CAVOK M02/M06 Q1018 R03/210360 NOSIG RMK QFE746/0995


Monday
. High: 71° F.
Tuesday
. High: 75° F.
Wednesday
. High: 66° F.
Thursday
. High: 53° F.
Friday
. High: 53° F.
Saturday
. High: 51° F.
Sunday
. High: 53° F.
Monday
. High: 59° F.

Units: English | Metric

Find the Weather for any City, State or Zipcode, or Country:

U.S. State List | Severe Weather | Tropical Storms | Ski Conditions
United States | Canada | Central America | South America | Asia | Europe | Australia | Africa | Islands

Weather Underground

© Copyright 2017
The Weather Company, LLC